createdAt,value
2018-07-31T00:01:07.981Z,5.40
2018-07-31T00:03:36.334Z,5.10
2018-07-31T00:06:04.571Z,5.17
2018-07-31T00:08:32.838Z,5.23
2018-07-31T00:11:01.076Z,4.93
2018-07-31T00:13:29.346Z,5.27
2018-07-31T00:15:58.341Z,5.30
2018-07-31T00:18:26.609Z,5.73
2018-07-31T00:20:55.626Z,5.20
2018-07-31T00:23:23.866Z,5.20
2018-07-31T00:25:52.906Z,5.57
2018-07-31T00:28:21.149Z,5.63
2018-07-31T00:30:49.402Z,5.30
2018-07-31T00:33:18.498Z,5.73
2018-07-31T00:35:46.726Z,5.13
2018-07-31T00:38:14.966Z,5.30
2018-07-31T00:40:43.993Z,5.70
2018-07-31T00:43:12.237Z,5.63
2018-07-31T00:45:40.528Z,4.90
2018-07-31T00:48:08.775Z,5.37
2018-07-31T00:50:37.784Z,5.30
2018-07-31T00:53:06.048Z,5.30
2018-07-31T00:55:35.090Z,4.80
2018-07-31T00:58:03.342Z,4.63
2018-07-31T01:00:31.576Z,4.97
2018-07-31T01:02:59.839Z,4.97
2018-07-31T01:05:28.067Z,5.23
2018-07-31T01:07:56.329Z,5.90
2018-07-31T01:10:24.616Z,5.63
2018-07-31T01:12:52.842Z,5.67
2018-07-31T01:15:21.098Z,5.67
2018-07-31T01:17:49.530Z,4.87
2018-07-31T01:20:17.805Z,5.20
2018-07-31T01:22:46.055Z,5.53
2018-07-31T01:25:15.115Z,5.07
2018-07-31T01:27:43.355Z,5.33
2018-07-31T01:30:11.591Z,5.27
2018-07-31T01:32:39.844Z,5.63
2018-07-31T01:35:08.079Z,5.33
2018-07-31T01:37:36.344Z,5.83
2018-07-31T01:40:04.581Z,5.40
2018-07-31T01:42:32.842Z,5.63
2018-07-31T01:45:01.856Z,5.20
2018-07-31T01:47:30.113Z,5.13
2018-07-31T01:49:58.361Z,5.13
2018-07-31T01:52:26.617Z,5.20
2018-07-31T01:54:54.914Z,5.53
2018-07-31T01:57:23.169Z,5.33
2018-07-31T01:59:52.431Z,5.57
2018-07-31T02:02:20.667Z,5.33
2018-07-31T02:04:48.901Z,5.60
2018-07-31T02:07:17.142Z,5.47
2018-07-31T02:09:45.393Z,5.70
2018-07-31T02:12:13.638Z,5.50
2018-07-31T02:14:41.906Z,5.40
2018-07-31T02:17:10.158Z,5.37
2018-07-31T02:19:39.165Z,5.07
2018-07-31T02:22:07.435Z,5.80
2018-07-31T02:24:36.454Z,5.50
2018-07-31T02:27:04.695Z,5.97
2018-07-31T02:29:33.739Z,5.50
2018-07-31T02:32:01.973Z,5.20
2018-07-31T02:34:30.978Z,5.53
2018-07-31T02:36:59.254Z,5.90
2018-07-31T02:39:27.505Z,5.83
2018-07-31T02:41:56.532Z,5.57
2018-07-31T02:44:24.778Z,5.73
2018-07-31T02:46:53.840Z,5.43
2018-07-31T02:49:22.042Z,5.77
2018-07-31T02:51:51.062Z,5.47
2018-07-31T02:54:19.327Z,5.73
2018-07-31T02:56:47.573Z,5.80
2018-07-31T02:59:16.603Z,5.43
2018-07-31T03:01:44.859Z,5.97
2018-07-31T03:04:13.116Z,5.37
2018-07-31T03:06:41.371Z,6.23
2018-07-31T03:09:09.614Z,5.30
2018-07-31T03:11:37.871Z,5.60
2018-07-31T03:14:06.125Z,5.63
2018-07-31T03:16:35.134Z,5.83
2018-07-31T03:19:03.399Z,5.93
2018-07-31T03:21:32.415Z,5.63
2018-07-31T03:24:00.706Z,5.67
2018-07-31T03:26:28.961Z,5.73
2018-07-31T03:28:57.201Z,6.00
2018-07-31T03:31:26.242Z,6.40
2018-07-31T03:33:54.484Z,5.63
2018-07-31T03:36:23.490Z,6.10
2018-07-31T03:38:51.746Z,5.90
2018-07-31T03:41:20.753Z,5.33
2018-07-31T03:43:49.004Z,6.13
2018-07-31T03:46:18.007Z,5.57
2018-07-31T03:48:47.037Z,5.70
2018-07-31T03:51:15.272Z,5.57
2018-07-31T03:53:44.293Z,5.50
2018-07-31T03:56:12.549Z,5.73
2018-07-31T03:58:41.622Z,5.87
2018-07-31T04:01:10.649Z,5.90
2018-07-31T04:03:38.885Z,5.80
2018-07-31T04:06:07.914Z,4.80
2018-07-31T04:08:36.198Z,5.43
2018-07-31T04:11:04.433Z,4.50
2018-07-31T04:13:33.441Z,5.17
2018-07-31T04:16:02.470Z,5.43
2018-07-31T04:18:30.709Z,5.57
2018-07-31T04:20:59.742Z,6.20
2018-07-31T04:23:28.678Z,5.73
2018-07-31T04:25:57.682Z,6.47
2018-07-31T04:28:26.719Z,4.80
2018-07-31T04:30:54.957Z,5.80
2018-07-31T04:33:23.202Z,6.17
2018-07-31T04:35:51.753Z,5.90
2018-07-31T04:38:19.956Z,5.83
2018-07-31T04:40:48.198Z,6.60
2018-07-31T04:43:16.458Z,5.93
2018-07-31T04:45:44.711Z,5.70
2018-07-31T04:48:12.970Z,6.20
2018-07-31T04:50:41.972Z,6.40
2018-07-31T04:53:11.097Z,6.00
2018-07-31T04:55:39.339Z,6.73
2018-07-31T04:58:08.358Z,5.87
2018-07-31T05:00:36.606Z,6.50
2018-07-31T05:03:05.628Z,6.27
2018-07-31T05:05:33.870Z,6.17
2018-07-31T05:08:02.890Z,6.67
2018-07-31T05:10:31.131Z,6.57
2018-07-31T05:13:00.130Z,6.37
2018-07-31T05:15:29.158Z,6.73
2018-07-31T05:17:57.407Z,6.73
2018-07-31T05:20:25.670Z,6.43
2018-07-31T05:22:54.675Z,6.67
2018-07-31T05:25:23.107Z,6.43
2018-07-31T05:27:51.193Z,6.77
2018-07-31T05:30:19.476Z,6.40
2018-07-31T05:32:47.794Z,6.53
2018-07-31T05:35:15.965Z,6.97
2018-07-31T05:37:44.230Z,6.53
2018-07-31T05:40:12.583Z,7.00
2018-07-31T05:42:41.583Z,7.10
2018-07-31T05:45:10.585Z,6.93
2018-07-31T05:47:38.823Z,6.33
2018-07-31T05:50:07.095Z,6.73
2018-07-31T05:52:35.378Z,6.10
2018-07-31T05:55:03.626Z,6.60
2018-07-31T05:57:32.045Z,6.40
2018-07-31T06:00:00.218Z,5.93
2018-07-31T06:02:29.226Z,6.30
2018-07-31T06:04:57.501Z,6.50
2018-07-31T06:07:26.535Z,6.30
2018-07-31T06:09:54.814Z,5.50
2018-07-31T06:12:23.050Z,6.03
2018-07-31T06:14:51.289Z,6.63
2018-07-31T06:17:19.562Z,5.93
2018-07-31T06:19:47.809Z,6.63
2018-07-31T06:22:16.058Z,6.93
2018-07-31T06:24:44.313Z,6.67
2018-07-31T06:27:13.321Z,6.30
2018-07-31T06:29:41.588Z,6.77
2018-07-31T06:32:09.839Z,6.57
2018-07-31T06:34:38.118Z,6.47
2018-07-31T06:37:07.146Z,6.50
2018-07-31T06:39:35.454Z,6.00
2018-07-31T06:42:03.692Z,6.93
2018-07-31T06:44:31.950Z,6.57
2018-07-31T06:47:00.966Z,6.00
2018-07-31T06:49:29.238Z,6.77
2018-07-31T06:51:57.473Z,5.80
2018-07-31T06:54:26.486Z,6.90
2018-07-31T06:56:54.844Z,6.40
2018-07-31T06:59:23.087Z,6.43
2018-07-31T07:01:51.337Z,6.93
2018-07-31T07:04:19.598Z,6.27
2018-07-31T07:06:47.848Z,5.83
2018-07-31T07:09:16.147Z,5.90
2018-07-31T07:11:44.343Z,6.07
2018-07-31T07:14:12.622Z,6.50
2018-07-31T07:16:40.869Z,5.37
2018-07-31T07:19:09.106Z,5.47
2018-07-31T07:21:37.366Z,5.37
2018-07-31T07:24:05.627Z,5.70
2018-07-31T07:26:33.886Z,5.57
2018-07-31T07:29:02.145Z,6.33
2018-07-31T07:31:30.393Z,5.40
2018-07-31T07:33:58.757Z,5.97
2018-07-31T07:36:27.682Z,5.77
2018-07-31T07:38:55.928Z,5.90
2018-07-31T07:41:24.188Z,5.53
2018-07-31T07:43:52.435Z,5.73
2018-07-31T07:46:20.698Z,5.70
2018-07-31T07:48:48.926Z,5.40
2018-07-31T07:51:17.195Z,5.50
2018-07-31T07:53:45.477Z,5.23
2018-07-31T07:56:13.684Z,5.40
2018-07-31T07:58:41.934Z,5.33
2018-07-31T08:01:11.036Z,4.80
2018-07-31T08:03:40.072Z,5.40
2018-07-31T08:06:08.303Z,5.40
2018-07-31T08:08:37.319Z,5.30
2018-07-31T08:11:05.582Z,4.80
2018-07-31T08:13:33.826Z,5.17
2018-07-31T08:16:02.090Z,5.60
2018-07-31T08:18:30.364Z,5.40
2018-07-31T08:20:58.594Z,5.40
2018-07-31T08:23:26.864Z,4.73
2018-07-31T08:25:55.160Z,5.10
2018-07-31T08:28:23.383Z,4.90
2018-07-31T08:30:51.633Z,5.40
2018-07-31T08:33:19.878Z,4.77
2018-07-31T08:35:48.146Z,5.50
2018-07-31T08:38:16.396Z,5.63
2018-07-31T08:40:45.441Z,5.37
2018-07-31T08:43:13.673Z,5.40
2018-07-31T08:45:41.912Z,5.93
2018-07-31T08:48:10.186Z,6.10
2018-07-31T08:50:38.431Z,5.40
2018-07-31T08:53:06.685Z,5.50
2018-07-31T08:55:35.019Z,5.50
2018-07-31T08:58:03.236Z,5.90
2018-07-31T09:00:31.513Z,5.63
2018-07-31T09:03:00.499Z,5.37
2018-07-31T09:05:28.782Z,5.33
2018-07-31T09:07:57.035Z,5.70
2018-07-31T09:10:25.288Z,5.63
2018-07-31T09:12:53.534Z,5.53
2018-07-31T09:15:21.788Z,4.87
2018-07-31T09:17:50.043Z,4.90
2018-07-31T09:20:18.289Z,5.10
2018-07-31T09:22:46.843Z,5.10
2018-07-31T09:25:15.084Z,5.47
2018-07-31T09:27:43.363Z,5.33
2018-07-31T09:30:11.598Z,5.17
2018-07-31T09:32:40.694Z,5.60
2018-07-31T09:35:09.713Z,5.33
2018-07-31T09:37:37.955Z,4.97
2018-07-31T09:40:06.997Z,5.13
2018-07-31T09:42:35.269Z,5.10
2018-07-31T09:45:03.538Z,4.70
2018-07-31T09:47:31.786Z,5.60
2018-07-31T09:50:00.798Z,5.30
2018-07-31T09:52:29.057Z,6.10
2018-07-31T09:54:58.055Z,5.97
2018-07-31T09:57:26.314Z,5.03
2018-07-31T09:59:55.348Z,5.37
2018-07-31T10:02:23.598Z,5.03
2018-07-31T10:04:51.858Z,5.00
2018-07-31T10:07:20.144Z,5.57
2018-07-31T10:09:49.437Z,5.00
2018-07-31T10:12:17.788Z,4.93
2018-07-31T10:14:46.043Z,5.30
2018-07-31T10:17:20.041Z,5.40
2018-07-31T10:19:49.030Z,4.63
2018-07-31T10:22:17.278Z,5.10
2018-07-31T10:24:45.541Z,5.13
2018-07-31T10:27:14.548Z,5.27
2018-07-31T10:29:43.141Z,4.70
2018-07-31T10:32:11.398Z,4.73
2018-07-31T10:34:40.426Z,4.60
2018-07-31T10:37:08.691Z,4.47
2018-07-31T10:39:36.926Z,4.87
2018-07-31T10:42:05.945Z,5.10
2018-07-31T10:44:34.187Z,4.70
2018-07-31T10:47:02.447Z,4.80
2018-07-31T10:49:30.718Z,4.97
2018-07-31T10:51:58.961Z,5.00
2018-07-31T10:54:27.200Z,4.77
2018-07-31T10:56:56.458Z,5.03
2018-07-31T10:59:24.702Z,5.20
2018-07-31T11:01:52.947Z,4.57
2018-07-31T11:04:22.228Z,4.60
2018-07-31T11:06:50.430Z,5.00
2018-07-31T11:09:18.678Z,4.20
2018-07-31T11:11:46.929Z,4.73
2018-07-31T11:14:15.188Z,4.30
2018-07-31T11:16:43.435Z,4.27
2018-07-31T11:19:11.685Z,4.10
2018-07-31T11:21:40.710Z,4.17
2018-07-31T11:24:09.061Z,3.70
2018-07-31T11:26:38.062Z,4.57
2018-07-31T11:29:06.466Z,4.40
2018-07-31T11:31:34.697Z,4.30
2018-07-31T11:34:03.711Z,4.10
2018-07-31T11:36:31.984Z,4.30
2018-07-31T11:39:00.228Z,3.87
2018-07-31T11:41:28.479Z,4.37
2018-07-31T11:43:56.757Z,4.03
2018-07-31T11:46:25.250Z,3.97
2018-07-31T11:48:53.484Z,4.60
2018-07-31T11:51:21.730Z,3.77
2018-07-31T11:53:50.758Z,3.90
2018-07-31T11:56:19.011Z,3.83
2018-07-31T11:58:47.422Z,4.13
2018-07-31T12:01:15.682Z,3.63
2018-07-31T12:03:43.912Z,3.50
2018-07-31T12:06:12.258Z,3.97
2018-07-31T12:08:40.503Z,3.70
2018-07-31T12:11:08.732Z,3.63
2018-07-31T12:13:36.996Z,4.00
2018-07-31T12:16:05.329Z,3.87
2018-07-31T12:18:34.306Z,3.90
2018-07-31T12:21:02.540Z,3.90
2018-07-31T12:23:31.677Z,3.70
2018-07-31T12:25:59.933Z,4.43
2018-07-31T12:28:29.485Z,3.70
2018-07-31T12:30:57.727Z,4.10
2018-07-31T12:33:26.017Z,4.00
2018-07-31T12:35:54.242Z,4.07
2018-07-31T12:38:22.547Z,4.40
2018-07-31T12:40:51.528Z,3.90
2018-07-31T12:43:20.530Z,3.87
2018-07-31T12:45:49.558Z,3.90
2018-07-31T12:48:17.920Z,4.20
2018-07-31T12:50:46.195Z,4.10
2018-07-31T12:53:14.445Z,4.33
2018-07-31T12:55:43.485Z,4.20
2018-07-31T12:58:11.754Z,4.20
2018-07-31T13:00:39.988Z,4.00
2018-07-31T13:03:09.010Z,3.87
2018-07-31T13:05:37.272Z,3.97
2018-07-31T13:08:05.525Z,4.10
2018-07-31T13:10:34.597Z,4.70
2018-07-31T13:13:02.861Z,4.50
2018-07-31T13:15:31.117Z,4.20
2018-07-31T13:17:59.373Z,3.90
2018-07-31T13:20:28.954Z,4.63
2018-07-31T13:22:58.007Z,4.80
2018-07-31T13:25:26.518Z,4.23
2018-07-31T13:27:54.767Z,4.90
2018-07-31T13:30:22.992Z,4.90
2018-07-31T13:32:51.342Z,4.57
2018-07-31T13:35:19.548Z,4.57
2018-07-31T13:37:47.817Z,4.53
2018-07-31T13:40:16.080Z,4.47
2018-07-31T13:42:45.082Z,4.37
2018-07-31T13:45:14.491Z,4.33
2018-07-31T13:47:42.750Z,4.33
2018-07-31T13:50:11.766Z,4.67
2018-07-31T13:52:40.032Z,4.07
2018-07-31T13:55:08.326Z,4.63
2018-07-31T13:57:36.550Z,4.20
2018-07-31T14:00:04.830Z,4.80
2018-07-31T14:02:34.001Z,4.33
2018-07-31T14:05:02.254Z,4.40
2018-07-31T14:07:30.490Z,4.50
2018-07-31T14:09:59.008Z,4.40
2018-07-31T14:12:27.262Z,4.90
2018-07-31T14:14:55.507Z,4.40
2018-07-31T14:17:24.522Z,4.30
2018-07-31T14:19:53.026Z,4.20
2018-07-31T14:22:21.510Z,4.70
2018-07-31T14:24:49.771Z,4.03
2018-07-31T14:27:18.341Z,4.17
2018-07-31T14:29:46.593Z,4.50
2018-07-31T14:32:14.818Z,4.53
2018-07-31T14:34:43.079Z,4.07
2018-07-31T14:37:11.416Z,4.00
2018-07-31T14:39:39.628Z,4.03
2018-07-31T14:42:07.863Z,4.03
2018-07-31T14:44:36.894Z,4.17
2018-07-31T14:47:05.133Z,4.27
2018-07-31T14:49:34.270Z,4.00
2018-07-31T14:52:02.510Z,4.37
2018-07-31T14:54:31.523Z,4.37
2018-07-31T14:56:59.787Z,4.70
2018-07-31T14:59:28.021Z,4.23
2018-07-31T15:01:56.273Z,3.80
2018-07-31T15:04:24.510Z,3.83
2018-07-31T15:06:52.991Z,4.13
2018-07-31T15:09:21.238Z,4.20
2018-07-31T15:11:49.494Z,3.40
2018-07-31T15:14:17.994Z,3.70
2018-07-31T15:16:46.266Z,3.70
2018-07-31T15:19:14.502Z,4.07
2018-07-31T15:21:43.011Z,3.90
2018-07-31T15:24:11.249Z,3.50
2018-07-31T15:26:39.490Z,4.70
2018-07-31T15:29:07.774Z,4.03
2018-07-31T15:31:36.765Z,3.70
2018-07-31T15:34:05.012Z,3.80
2018-07-31T15:36:33.531Z,3.60
2018-07-31T15:39:01.793Z,4.47
2018-07-31T15:41:30.801Z,3.87
2018-07-31T15:43:59.069Z,3.77
2018-07-31T15:46:27.326Z,3.63
2018-07-31T15:48:56.498Z,3.67
2018-07-31T15:51:24.747Z,3.43
2018-07-31T15:53:53.764Z,3.53
2018-07-31T15:56:22.040Z,3.50
2018-07-31T15:58:50.305Z,3.70
2018-07-31T16:01:18.546Z,3.53
2018-07-31T16:03:46.823Z,3.70
2018-07-31T16:06:15.077Z,3.37
2018-07-31T16:08:43.338Z,3.00
2018-07-31T16:11:12.349Z,3.40
2018-07-31T16:13:40.619Z,3.37
2018-07-31T16:16:08.907Z,3.60
2018-07-31T16:18:37.141Z,3.50
2018-07-31T16:21:05.709Z,3.57
2018-07-31T16:23:33.923Z,3.63
2018-07-31T16:26:03.020Z,3.37
2018-07-31T16:28:32.381Z,3.70
2018-07-31T16:31:00.605Z,3.30
2018-07-31T16:33:28.886Z,3.10
2018-07-31T16:35:57.144Z,3.40
2018-07-31T16:38:26.170Z,3.63
2018-07-31T16:40:54.409Z,3.57
2018-07-31T16:43:23.458Z,3.50
2018-07-31T16:45:52.527Z,3.93
2018-07-31T16:48:20.793Z,3.57
2018-07-31T16:50:49.041Z,3.27
2018-07-31T16:53:18.100Z,3.30
2018-07-31T16:55:46.340Z,3.13
2018-07-31T16:58:14.594Z,3.50
2018-07-31T17:00:42.861Z,3.10
2018-07-31T17:03:11.881Z,3.37
2018-07-31T17:05:40.136Z,3.20
2018-07-31T17:08:08.405Z,2.70
2018-07-31T17:10:37.416Z,2.63
2018-07-31T17:13:05.692Z,2.83
2018-07-31T17:15:33.987Z,2.80
2018-07-31T17:18:02.251Z,2.87
2018-07-31T17:20:30.513Z,2.60
2018-07-31T17:22:58.766Z,3.13
2018-07-31T17:25:27.017Z,3.53
2018-07-31T17:27:55.284Z,3.73
2018-07-31T17:30:23.522Z,2.97
2018-07-31T17:32:51.791Z,2.50
2018-07-31T17:35:20.069Z,2.73
2018-07-31T17:37:49.084Z,2.90
2018-07-31T17:40:17.343Z,2.47
2018-07-31T17:42:45.596Z,2.70
2018-07-31T17:45:13.877Z,2.50
2018-07-31T17:47:42.144Z,2.47
2018-07-31T17:50:10.410Z,2.50
2018-07-31T17:52:39.459Z,2.83
2018-07-31T17:55:07.774Z,2.63
2018-07-31T17:57:36.055Z,2.67
2018-07-31T18:00:05.074Z,2.50
2018-07-31T18:02:33.331Z,2.70
2018-07-31T18:05:01.604Z,2.70
2018-07-31T18:07:30.643Z,2.67
2018-07-31T18:09:59.691Z,2.63
2018-07-31T18:12:27.939Z,2.53
2018-07-31T18:14:56.203Z,2.60
2018-07-31T18:17:24.471Z,2.70
2018-07-31T18:19:52.737Z,2.63
2018-07-31T18:22:21.026Z,2.70
2018-07-31T18:24:49.274Z,2.43
2018-07-31T18:27:17.546Z,2.83
2018-07-31T18:29:45.806Z,2.63
2018-07-31T18:32:14.058Z,2.40
2018-07-31T18:34:43.091Z,2.60
2018-07-31T18:37:11.329Z,2.90
2018-07-31T18:39:39.615Z,2.80
2018-07-31T18:42:07.855Z,2.53
2018-07-31T18:44:36.141Z,2.90
2018-07-31T18:47:05.250Z,2.80
2018-07-31T18:49:33.491Z,3.20
2018-07-31T18:52:01.738Z,3.03
2018-07-31T18:54:29.987Z,3.10
2018-07-31T18:56:58.247Z,2.63
2018-07-31T18:59:27.273Z,2.33
2018-07-31T19:01:55.558Z,2.60
2018-07-31T19:04:23.808Z,2.53
2018-07-31T19:06:52.095Z,2.40
2018-07-31T19:09:21.070Z,2.63
2018-07-31T19:11:49.353Z,2.07
2018-07-31T19:14:17.597Z,2.40
2018-07-31T19:16:46.658Z,2.47
2018-07-31T19:19:14.897Z,2.73
2018-07-31T19:21:43.180Z,2.47
2018-07-31T19:24:11.433Z,2.50
2018-07-31T19:26:39.669Z,2.70
2018-07-31T19:29:07.957Z,2.40
2018-07-31T19:31:36.224Z,2.53
2018-07-31T19:34:04.518Z,2.17
2018-07-31T19:36:32.736Z,2.30
2018-07-31T19:39:01.017Z,2.63
2018-07-31T19:41:29.265Z,2.50
2018-07-31T19:43:57.548Z,2.20
2018-07-31T19:46:25.858Z,2.70
2018-07-31T19:48:54.085Z,2.50
2018-07-31T19:51:22.369Z,2.80
2018-07-31T19:53:50.606Z,2.63
2018-07-31T19:56:19.686Z,2.60
2018-07-31T19:58:47.946Z,2.70
2018-07-31T20:01:16.290Z,2.33
2018-07-31T20:03:44.461Z,2.37
2018-07-31T20:06:12.749Z,2.70
2018-07-31T20:08:41.001Z,2.50
2018-07-31T20:11:09.264Z,2.73
2018-07-31T20:13:37.544Z,2.60
2018-07-31T20:16:05.798Z,2.70
2018-07-31T20:18:34.034Z,2.53
2018-07-31T20:21:02.330Z,2.97
2018-07-31T20:23:30.546Z,2.53
2018-07-31T20:25:58.816Z,2.60
2018-07-31T20:28:27.827Z,2.73
2018-07-31T20:30:56.088Z,2.80
2018-07-31T20:33:24.348Z,3.00
2018-07-31T20:35:53.368Z,2.53
2018-07-31T20:38:21.638Z,2.87
2018-07-31T20:40:49.901Z,3.27
2018-07-31T20:43:18.929Z,2.70
2018-07-31T20:45:47.214Z,2.87
2018-07-31T20:48:15.474Z,2.70
2018-07-31T20:50:43.730Z,2.73
2018-07-31T20:53:11.979Z,2.90
2018-07-31T20:55:40.998Z,2.87
2018-07-31T20:58:09.242Z,2.80
2018-07-31T21:00:38.270Z,2.50
2018-07-31T21:03:06.524Z,2.53
2018-07-31T21:05:35.546Z,2.83
2018-07-31T21:08:03.820Z,2.30
2018-07-31T21:10:32.066Z,3.10
2018-07-31T21:13:01.092Z,3.17
2018-07-31T21:15:29.325Z,2.50
2018-07-31T21:17:58.375Z,3.07
2018-07-31T21:20:26.603Z,2.80
2018-07-31T21:22:55.601Z,2.57
2018-07-31T21:25:23.864Z,2.80
2018-07-31T21:27:52.882Z,2.83
2018-07-31T21:30:21.147Z,3.60
2018-07-31T21:32:49.382Z,3.10
2018-07-31T21:35:17.649Z,3.20
2018-07-31T21:37:45.886Z,3.50
2018-07-31T21:40:14.145Z,3.30
2018-07-31T21:42:42.408Z,3.17
2018-07-31T21:45:10.664Z,2.90
2018-07-31T21:47:38.976Z,3.17
2018-07-31T21:50:07.186Z,3.13
2018-07-31T21:52:35.458Z,2.70
2018-07-31T21:55:03.683Z,2.77
2018-07-31T21:57:32.732Z,3.03
2018-07-31T22:00:00.961Z,3.23
2018-07-31T22:02:29.217Z,3.10
2018-07-31T22:04:58.246Z,3.13
2018-07-31T22:07:26.487Z,3.60
2018-07-31T22:09:55.506Z,3.07
2018-07-31T22:12:23.758Z,3.20
2018-07-31T22:14:52.819Z,2.80
2018-07-31T22:17:21.055Z,3.13
2018-07-31T22:19:49.314Z,3.10
2018-07-31T22:22:17.549Z,3.20
2018-07-31T22:24:45.886Z,3.27
2018-07-31T22:27:14.070Z,3.57
2018-07-31T22:29:42.314Z,3.07
2018-07-31T22:32:10.585Z,2.93
2018-07-31T22:34:38.834Z,3.50
2018-07-31T22:37:07.156Z,3.37
2018-07-31T22:39:35.408Z,2.93
2018-07-31T22:42:03.665Z,2.60
2018-07-31T22:44:32.674Z,2.97
2018-07-31T22:47:00.914Z,3.20
2018-07-31T22:49:29.194Z,3.27
2018-07-31T22:51:57.433Z,3.30
2018-07-31T22:54:25.679Z,3.17
2018-07-31T22:56:53.933Z,3.10
2018-07-31T22:59:22.945Z,3.37
2018-07-31T23:01:51.218Z,2.70
2018-07-31T23:04:19.458Z,2.63
2018-07-31T23:06:47.707Z,3.07
2018-07-31T23:09:15.978Z,2.70
2018-07-31T23:11:44.226Z,3.00
2018-07-31T23:14:12.491Z,3.20
2018-07-31T23:16:40.722Z,3.17
2018-07-31T23:19:08.977Z,3.17
2018-07-31T23:21:37.242Z,2.87
2018-07-31T23:24:05.484Z,2.67
2018-07-31T23:26:33.751Z,3.00
2018-07-31T23:29:02.757Z,3.30
2018-07-31T23:31:31.454Z,3.00
2018-07-31T23:34:02.742Z,2.80
2018-07-31T23:36:31.402Z,3.07
2018-07-31T23:38:59.650Z,2.80
2018-07-31T23:41:27.917Z,2.60
2018-07-31T23:43:56.159Z,3.00
2018-07-31T23:46:24.426Z,3.17
2018-07-31T23:48:52.677Z,2.87
2018-07-31T23:51:20.945Z,3.17
2018-07-31T23:53:49.195Z,3.10
2018-07-31T23:56:17.458Z,3.00
2018-07-31T23:58:46.474Z,3.07
